• Join FlightAware (Why Join?)
  • Login
  • US Flag 
05:36AM EDT


 

Airport Tracker/Info


-or-


 

Live Flight TrackerFlight Track Log ✈ ANA532 ✈ 05-May-2013 ✈ RJOT / TAK - RJTT / HND

Flight Track Log - Related Links

Times and Time Zones

All times are in EDT time to prevent confusion due to time zone crossing. See the ANA532 flight status page for this flight to view local times or setup timezone preferences in your user account.

Time Position Orientation Groundspeed Altitude Reporting Facility
EDT Latitude Longitude Course Direction KTS MPH feet Rate Location/Type
06:50PM 34.3021 134.3562 73° East  Level Estimated
06:51PM 34.3312 134.4699 73° East  Level Estimated
06:52PM 34.3602 134.5837 73° East  Level Estimated
06:53PM 34.3890 134.6975 73° East  Level Estimated
06:54PM 34.4178 134.8115 73° East  Level Estimated
06:55PM 34.4465 134.9255 73° East  Level Estimated
06:56PM 34.4751 135.0396 73° East  Level Estimated
06:57PM 34.5035 135.1537 73° East  Level Estimated
06:58PM 34.5319 135.2680 73° East  Level Estimated
06:59PM 34.5601 135.3823 73° East  Level Estimated
07:00PM 34.5883 135.4967 73° East  Level Estimated
07:01PM 34.6163 135.6112 73° East  Level Estimated
07:02PM 34.6442 135.7258 73° East  Level Estimated
07:03PM 34.6720 135.8404 74° East  Level Estimated
07:04PM 34.6997 135.9551 74° East  Level Estimated
07:05PM 34.7273 136.0699 74° East  Level Estimated
07:06PM 34.7548 136.1847 74° East  Level Estimated
07:07PM 34.7822 136.2997 74° East  Level Estimated
07:08PM 34.8095 136.4147 74° East  Level Estimated
07:09PM 34.8367 136.5298 74° East  Level Estimated
07:10PM 34.8638 136.6450 74° East  Level Estimated
07:11PM 34.8907 136.7602 74° East  Level Estimated
07:12PM 34.9176 136.8755 74° East  Level Estimated
07:13PM 34.9443 136.9909 74° East  Level Estimated
07:14PM 34.9709 137.1064 74° East  Level Estimated
07:15PM 34.9975 137.2220 74° East  Level Estimated
07:16PM 35.0239 137.3376 74° East  Level Estimated
07:17PM 35.0502 137.4533 74° East  Level Estimated
07:18PM 35.0764 137.5690 75° East  Level Estimated
07:19PM 35.1024 137.6849 75° East  Level Estimated
07:20PM 35.1284 137.8008 75° East  Level Estimated
07:21PM 35.1543 137.9168 75° East  Level Estimated
07:22PM 35.1800 138.0329 75° East  Level Estimated
07:23PM 35.2057 138.1490 75° East  Level Estimated
07:24PM 35.2312 138.2652 75° East  Level Estimated
07:25PM 35.2566 138.3815 75° East  Level Estimated
07:26PM 35.2819 138.4979 75° East  Level Estimated
07:27PM 35.3071 138.6143 75° East  Level Estimated
07:28PM 35.3322 138.7308 75° East  Level Estimated
07:29PM 35.3571 138.8474 75° East  Level Estimated
07:30PM 35.3820 138.9640 75° East  Level Estimated
07:31PM 35.4067 139.0807 75° East  Level Estimated
07:32PM 35.4314 139.1975 75° East  Level Estimated
07:33PM 35.4559 139.3144 76° East  Level Estimated
07:34PM 35.4803 139.4313 76° East  Level Estimated
07:35PM 35.5046 139.5483 76° East  Level Estimated
07:36PM 35.5288 139.6654 76° East  Level Estimated
07:37PM 35.5523 139.7797 76° East  Level Estimated
07:38PM 35.5523 139.7797 122° Southeast  Level Estimated
07:39PM 35.5523 139.7797 122° Southeast  Level Estimated
07:40PM 35.5523 139.7797 122° Southeast  Level Estimated
07:41PM 35.5523 139.7797 122° Southeast  Level Estimated
07:42PM 35.5523 139.7797 122° Southeast  Level Estimated
07:43PM 35.5523 139.7797 122° Southeast  Level Estimated
07:44PM 35.5523 139.7797 122° Southeast  Level Estimated
07:45PM 35.5523 139.7797 122° Southeast  Level Estimated
07:46PM 35.5523 139.7797 122° Southeast  Level Estimated
07:47PM 35.5523 139.7797 122° Southeast  Level Estimated
07:48PM 35.5523 139.7797 122° Southeast  Level Estimated
07:49PM 35.5523 139.7797 122° Southeast  Level Estimated
07:50PM 35.5523 139.7797 122° Southeast  Level Estimated
07:51PM 35.5523 139.7797 122° Southeast  Level Estimated
07:52PM 35.5523 139.7797 122° Southeast  Level Estimated
07:53PM 35.5523 139.7797 122° Southeast  Level Estimated